Time;durP1;ratioP1;P1;durP2;ratioP2;P2;SDS_P1;SDS_P2;PMS_P1;PMS_P2;Temp;Humidity;BMP_temperature;BMP_pressure;BME280_temperature;BME280_humidity;BME280_pressure;Samples;Min_cycle;Max_cycle;Signal;HPM_P1;HPM_P2
2021/05/16 00:00:17;;;;;;;1.10;0.80;;;;;;;;;;5032292;28;20321;-76
2021/05/16 00:02:44;;;;;;;1.10;0.70;;;;;;;;;;5032560;28;20252;-77
2021/05/16 00:05:11;;;;;;;2.10;0.85;;;;;;;;;;5032290;28;20743;-77
2021/05/16 00:07:37;;;;;;;1.10;0.70;;;;;;;;;;5032035;28;20552;-77
2021/05/16 00:10:04;;;;;;;1.10;0.70;;;;;;;;;;5030905;28;20181;-77
2021/05/16 00:12:30;;;;;;;1.10;0.70;;;;;;;;;;5037309;28;20434;-77
2021/05/16 00:14:56;;;;;;;1.10;0.70;;;;;;;;;;5033371;28;20213;-77
2021/05/16 00:17:22;;;;;;;1.10;0.70;;;;;;;;;;5031193;28;20471;-76
2021/05/16 00:19:48;;;;;;;1.10;0.70;;;;;;;;;;5031895;28;20401;-77
2021/05/16 00:22:14;;;;;;;1.10;0.80;;;;;;;;;;5031862;28;20992;-77
2021/05/16 00:24:40;;;;;;;1.10;0.70;;;;;;;;;;5031925;28;20463;-76
2021/05/16 00:27:06;;;;;;;1.50;1.00;;;;;;;;;;5031564;28;20536;-77
2021/05/16 00:29:32;;;;;;;1.10;0.70;;;;;;;;;;5031918;28;21164;-76
2021/05/16 00:31:58;;;;;;;1.10;0.70;;;;;;;;;;5032036;28;20440;-76
2021/05/16 00:34:24;;;;;;;1.10;0.80;;;;;;;;;;5031801;28;20464;-76
2021/05/16 00:36:50;;;;;;;1.10;0.80;;;;;;;;;;5031864;28;20428;-77
2021/05/16 00:39:16;;;;;;;1.10;0.70;;;;;;;;;;5031782;28;20182;-77
2021/05/16 00:41:42;;;;;;;1.10;0.70;;;;;;;;;;5030670;28;20430;-77
2021/05/16 00:44:08;;;;;;;1.10;0.80;;;;;;;;;;5035724;28;20440;-77
2021/05/16 00:46:35;;;;;;;1.10;0.70;;;;;;;;;;5026228;28;20498;-77
2021/05/16 00:49:01;;;;;;;1.60;0.93;;;;;;;;;;5030667;28;20368;-76
2021/05/16 00:51:27;;;;;;;1.20;0.90;;;;;;;;;;5031513;28;20170;-76
2021/05/16 00:53:53;;;;;;;1.20;0.80;;;;;;;;;;5031757;28;20412;-77
2021/05/16 00:56:19;;;;;;;1.10;0.70;;;;;;;;;;5029911;28;20443;-76
2021/05/16 00:58:45;;;;;;;1.20;0.60;;;;;;;;;;5026495;28;20941;-76
2021/05/16 01:01:14;;;;;;;1.10;0.70;;;;;;;;;;5034712;28;20182;-77
2021/05/16 01:03:40;;;;;;;1.35;0.88;;;;;;;;;;5023373;28;20412;-77
2021/05/16 01:06:06;;;;;;;1.10;0.77;;;;;;;;;;5031272;28;20204;-77
2021/05/16 01:08:32;;;;;;;1.20;0.70;;;;;;;;;;5030766;28;20959;-76
2021/05/16 01:10:58;;;;;;;1.10;0.80;;;;;;;;;;5031639;28;20184;-77
2021/05/16 01:13:26;;;;;;;1.30;1.02;;;;;;;;;;5031565;28;20257;-77
2021/05/16 01:15:52;;;;;;;1.17;0.70;;;;;;;;;;5031089;28;20205;-76
2021/05/16 01:18:18;;;;;;;1.10;0.70;;;;;;;;;;5030061;28;20184;-76
2021/05/16 01:20:46;;;;;;;1.17;0.70;;;;;;;;;;5023025;28;20178;-77
2021/05/16 01:23:26;;;;;;;1.10;0.70;;;;;;;;;;5031548;28;20183;-76
2021/05/16 01:25:52;;;;;;;1.50;0.90;;;;;;;;;;5031536;28;20685;-77
2021/05/16 01:28:20;;;;;;;1.23;0.98;;;;;;;;;;5033323;28;20691;-76
2021/05/16 01:30:47;;;;;;;1.30;0.85;;;;;;;;;;5026037;28;20198;-77
2021/05/16 01:33:13;;;;;;;1.20;0.80;;;;;;;;;;5030917;28;20642;-76
2021/05/16 01:35:39;;;;;;;1.10;0.70;;;;;;;;;;5038152;28;20206;-77
2021/05/16 01:38:07;;;;;;;1.20;0.80;;;;;;;;;;5023641;28;20188;-77
2021/05/16 01:40:33;;;;;;;1.10;0.70;;;;;;;;;;5035269;28;20182;-77
2021/05/16 01:42:59;;;;;;;1.10;0.70;;;;;;;;;;5021500;28;20186;-77
2021/05/16 01:45:27;;;;;;;1.20;0.80;;;;;;;;;;5010056;28;20464;-77
2021/05/16 01:47:53;;;;;;;1.10;0.70;;;;;;;;;;5019658;28;20551;-77
2021/05/16 01:50:20;;;;;;;1.10;0.70;;;;;;;;;;5029429;28;20179;-77
2021/05/16 01:52:47;;;;;;;1.10;0.95;;;;;;;;;;5031281;28;20259;-77
2021/05/16 01:55:13;;;;;;;1.10;0.70;;;;;;;;;;5033292;28;20198;-76
2021/05/16 01:57:39;;;;;;;1.10;0.80;;;;;;;;;;5034871;28;20189;-77
2021/05/16 02:00:09;;;;;;;1.10;0.70;;;;;;;;;;5034530;28;20189;-77
2021/05/16 02:02:35;;;;;;;1.90;1.20;;;;;;;;;;5034597;28;20245;-77
2021/05/16 02:05:01;;;;;;;1.20;0.80;;;;;;;;;;5034721;28;20198;-77
2021/05/16 02:07:27;;;;;;;1.10;0.70;;;;;;;;;;5034619;28;20409;-76
2021/05/16 02:09:54;;;;;;;1.10;0.80;;;;;;;;;;5041389;28;20804;-76
2021/05/16 02:12:22;;;;;;;1.10;0.80;;;;;;;;;;5026251;28;20233;-77
2021/05/16 02:14:48;;;;;;;1.10;0.70;;;;;;;;;;5034421;28;20202;-77
2021/05/16 02:17:14;;;;;;;1.10;0.80;;;;;;;;;;5034327;28;20272;-77
2021/05/16 02:19:40;;;;;;;1.80;1.70;;;;;;;;;;5033863;28;20190;-77
2021/05/16 02:22:06;;;;;;;1.10;0.80;;;;;;;;;;5034550;28;20542;-76
2021/05/16 02:24:32;;;;;;;1.30;0.90;;;;;;;;;;5033985;28;20209;-77
2021/05/16 02:27:00;;;;;;;1.10;0.70;;;;;;;;;;5032225;28;20193;-76
2021/05/16 02:29:29;;;;;;;1.10;0.70;;;;;;;;;;5033964;28;20477;-77
2021/05/16 02:31:55;;;;;;;1.10;0.70;;;;;;;;;;5032788;28;20198;-77
2021/05/16 02:34:21;;;;;;;1.10;0.70;;;;;;;;;;5034166;28;20564;-77
2021/05/16 02:36:48;;;;;;;1.10;0.70;;;;;;;;;;5034183;28;20182;-77
2021/05/16 02:39:14;;;;;;;1.30;1.20;;;;;;;;;;5034669;28;20216;-77
2021/05/16 02:41:39;;;;;;;1.23;1.10;;;;;;;;;;5031640;28;20218;-77
2021/05/16 02:44:06;;;;;;;1.10;0.80;;;;;;;;;;5032893;28;20981;-77
2021/05/16 02:46:32;;;;;;;2.80;2.10;;;;;;;;;;5033795;28;20187;-77
2021/05/16 02:48:58;;;;;;;1.10;0.80;;;;;;;;;;5033056;28;20232;-77
2021/05/16 02:51:23;;;;;;;7.37;1.13;;;;;;;;;;5033963;28;20174;-77
2021/05/16 02:53:49;;;;;;;1.67;1.50;;;;;;;;;;5033771;28;20491;-77
2021/05/16 02:56:16;;;;;;;1.10;0.77;;;;;;;;;;5033573;28;20405;-77
2021/05/16 02:58:43;;;;;;;1.10;0.70;;;;;;;;;;5033524;28;20931;-77
2021/05/16 03:01:11;;;;;;;1.10;0.80;;;;;;;;;;5033474;28;20282;-76
2021/05/16 03:03:37;;;;;;;1.10;0.70;;;;;;;;;;5033596;28;20206;-77
2021/05/16 03:06:03;;;;;;;1.10;0.90;;;;;;;;;;5032611;28;20225;-77
2021/05/16 03:08:29;;;;;;;1.10;0.80;;;;;;;;;;5033217;28;20775;-77
2021/05/16 03:10:55;;;;;;;1.37;1.13;;;;;;;;;;5039666;28;20171;-77
2021/05/16 03:13:20;;;;;;;1.58;1.10;;;;;;;;;;5026264;28;20441;-77
2021/05/16 03:15:46;;;;;;;1.20;1.10;;;;;;;;;;5033035;28;20593;-77
2021/05/16 03:18:12;;;;;;;1.10;0.80;;;;;;;;;;5032946;28;20441;-76
2021/05/16 03:20:38;;;;;;;1.10;0.80;;;;;;;;;;5033359;28;20874;-75
2021/05/16 03:23:04;;;;;;;1.10;0.83;;;;;;;;;;5031914;28;20926;-76
2021/05/16 03:25:33;;;;;;;1.30;0.90;;;;;;;;;;5032901;28;20425;-75
2021/05/16 03:27:59;;;;;;;1.10;0.70;;;;;;;;;;5033086;28;20459;-76
2021/05/16 03:30:25;;;;;;;1.20;0.90;;;;;;;;;;5032915;28;20186;-76
2021/05/16 03:32:51;;;;;;;1.10;0.80;;;;;;;;;;5032879;28;20421;-75
2021/05/16 03:35:17;;;;;;;1.10;0.70;;;;;;;;;;5031497;28;20441;-76
2021/05/16 03:37:43;;;;;;;1.10;0.70;;;;;;;;;;5032958;28;20178;-76
2021/05/16 03:40:09;;;;;;;1.10;0.70;;;;;;;;;;5039651;28;20731;-75
2021/05/16 03:42:36;;;;;;;1.30;1.15;;;;;;;;;;5035666;28;20436;-76
2021/05/16 03:45:03;;;;;;;1.10;0.80;;;;;;;;;;5032543;28;20198;-76
2021/05/16 03:47:29;;;;;;;1.10;0.80;;;;;;;;;;5030437;28;20187;-75
2021/05/16 03:49:55;;;;;;;1.20;1.10;;;;;;;;;;5032250;28;20640;-76
2021/05/16 03:52:21;;;;;;;1.30;0.87;;;;;;;;;;5032715;28;20911;-75
2021/05/16 03:54:48;;;;;;;1.10;0.70;;;;;;;;;;5032604;28;20424;-75
2021/05/16 03:57:14;;;;;;;1.25;0.88;;;;;;;;;;5032946;28;20185;-74
2021/05/16 03:59:40;;;;;;;1.20;0.85;;;;;;;;;;5028483;28;20177;-75
2021/05/16 04:02:06;;;;;;;1.10;0.80;;;;;;;;;;5012825;28;20638;-75
2021/05/16 04:04:32;;;;;;;1.17;1.00;;;;;;;;;;5012571;28;20489;-75
2021/05/16 04:06:58;;;;;;;1.50;1.40;;;;;;;;;;5012663;28;20425;-75
2021/05/16 04:09:24;;;;;;;1.10;0.70;;;;;;;;;;5030278;28;20462;-75
2021/05/16 04:11:50;;;;;;;1.60;0.97;;;;;;;;;;5032349;28;20224;-75
2021/05/16 04:14:17;;;;;;;1.20;1.00;;;;;;;;;;5038102;28;20463;-75
2021/05/16 04:16:43;;;;;;;1.10;0.95;;;;;;;;;;5016437;28;20406;-75
2021/05/16 04:19:09;;;;;;;2.75;1.55;;;;;;;;;;5029902;28;20272;-75
2021/05/16 04:21:35;;;;;;;22.08;1.42;;;;;;;;;;5030586;28;20270;-75
2021/05/16 04:24:01;;;;;;;1.10;0.90;;;;;;;;;;5028967;28;20610;-75
2021/05/16 04:26:27;;;;;;;1.23;0.90;;;;;;;;;;5031331;28;20939;-75
2021/05/16 04:28:53;;;;;;;2.40;2.20;;;;;;;;;;5030104;28;20202;-75
2021/05/16 04:31:19;;;;;;;1.20;0.93;;;;;;;;;;5032092;28;20417;-72
2021/05/16 04:33:45;;;;;;;1.40;0.90;;;;;;;;;;5032034;28;20198;-72
2021/05/16 04:36:11;;;;;;;1.10;0.90;;;;;;;;;;5029355;28;20438;-72
2021/05/16 04:38:37;;;;;;;1.25;1.13;;;;;;;;;;5028994;28;20186;-72
2021/05/16 04:41:03;;;;;;;1.27;0.90;;;;;;;;;;5031900;28;20206;-72
2021/05/16 04:43:29;;;;;;;1.10;0.90;;;;;;;;;;5038758;28;20195;-72
2021/05/16 04:45:55;;;;;;;1.40;0.80;;;;;;;;;;5023360;28;20495;-72
2021/05/16 04:48:20;;;;;;;1.77;1.10;;;;;;;;;;5031111;28;20533;-73
2021/05/16 04:50:46;;;;;;;1.10;0.70;;;;;;;;;;5031058;28;20432;-72
2021/05/16 04:53:12;;;;;;;1.30;0.83;;;;;;;;;;5031780;28;20408;-72
2021/05/16 04:55:38;;;;;;;1.10;0.70;;;;;;;;;;5031501;28;20524;-72
2021/05/16 04:58:04;;;;;;;1.20;0.80;;;;;;;;;;5030327;28;20405;-72
2021/05/16 05:00:30;;;;;;;2.13;1.03;;;;;;;;;;5011722;28;20256;-72
2021/05/16 05:02:58;;;;;;;1.30;0.97;;;;;;;;;;5024750;28;20420;-72
2021/05/16 05:05:24;;;;;;;1.10;0.80;;;;;;;;;;5031663;28;20432;-72
2021/05/16 05:07:50;;;;;;;1.20;0.90;;;;;;;;;;5031592;28;20579;-72
2021/05/16 05:10:15;;;;;;;1.10;0.70;;;;;;;;;;5030189;28;20413;-72
2021/05/16 05:12:41;;;;;;;1.10;0.70;;;;;;;;;;5036536;28;20412;-73
2021/05/16 05:15:08;;;;;;;1.37;0.77;;;;;;;;;;5024066;28;20453;-73
2021/05/16 05:17:34;;;;;;;1.10;0.80;;;;;;;;;;5019749;28;21059;-72
2021/05/16 05:20:00;;;;;;;1.52;1.20;;;;;;;;;;5030907;28;20212;-72
2021/05/16 05:22:26;;;;;;;1.10;0.70;;;;;;;;;;5031606;28;20659;-72
2021/05/16 05:24:52;;;;;;;1.10;0.80;;;;;;;;;;5031436;28;20591;-73
2021/05/16 05:27:18;;;;;;;2.85;1.02;;;;;;;;;;5031544;28;20660;-72
2021/05/16 05:29:44;;;;;;;1.10;0.90;;;;;;;;;;5032495;28;20217;-72
2021/05/16 05:32:10;;;;;;;3.53;1.07;;;;;;;;;;5035134;28;20190;-72
2021/05/16 05:34:36;;;;;;;1.20;0.85;;;;;;;;;;5033954;28;20948;-73
2021/05/16 05:37:02;;;;;;;1.15;0.77;;;;;;;;;;5035101;28;20182;-72
2021/05/16 05:39:28;;;;;;;1.70;1.00;;;;;;;;;;5033911;28;20193;-72
2021/05/16 05:41:54;;;;;;;1.40;0.90;;;;;;;;;;5029334;28;20197;-73
2021/05/16 05:44:20;;;;;;;1.88;1.15;;;;;;;;;;5039904;28;20198;-74
2021/05/16 05:46:46;;;;;;;1.10;0.70;;;;;;;;;;5032072;28;20231;-72
2021/05/16 05:49:12;;;;;;;1.20;0.90;;;;;;;;;;5032043;28;20511;-72
2021/05/16 05:51:38;;;;;;;1.10;0.80;;;;;;;;;;5028116;28;20410;-73
2021/05/16 05:54:04;;;;;;;1.10;0.73;;;;;;;;;;5032656;28;20440;-72
2021/05/16 05:56:30;;;;;;;1.20;0.85;;;;;;;;;;5030265;28;20464;-73
2021/05/16 05:58:56;;;;;;;1.10;0.70;;;;;;;;;;5025923;28;20179;-72
2021/05/16 06:01:22;;;;;;;1.10;0.70;;;;;;;;;;5030188;28;20653;-73
2021/05/16 06:03:49;;;;;;;1.10;0.70;;;;;;;;;;5031538;28;20490;-73
2021/05/16 06:06:15;;;;;;;1.10;0.70;;;;;;;;;;5025690;28;20440;-72
2021/05/16 06:08:41;;;;;;;1.10;0.70;;;;;;;;;;5026066;28;20289;-73
2021/05/16 06:11:07;;;;;;;1.38;1.00;;;;;;;;;;5031239;28;20273;-73
2021/05/16 06:13:33;;;;;;;1.50;1.03;;;;;;;;;;5035488;28;20613;-73
2021/05/16 06:15:59;;;;;;;1.10;0.70;;;;;;;;;;5025034;28;20548;-72
2021/05/16 06:18:25;;;;;;;1.20;0.77;;;;;;;;;;5033249;28;20201;-73
2021/05/16 06:20:51;;;;;;;1.90;1.00;;;;;;;;;;5034335;28;20625;-73
2021/05/16 06:23:18;;;;;;;1.10;0.80;;;;;;;;;;5029751;28;20187;-71
2021/05/16 06:25:45;;;;;;;1.20;0.77;;;;;;;;;;5030276;28;20700;-71
2021/05/16 06:28:11;;;;;;;1.33;1.00;;;;;;;;;;5032411;28;20278;-71
2021/05/16 06:30:37;;;;;;;2.70;1.10;;;;;;;;;;5031895;28;20186;-72
2021/05/16 06:33:03;;;;;;;1.10;0.70;;;;;;;;;;5033256;28;20452;-72
2021/05/16 06:35:29;;;;;;;1.30;0.77;;;;;;;;;;5025804;28;20436;-72
2021/05/16 06:37:55;;;;;;;2.33;0.80;;;;;;;;;;5032547;28;20193;-72
2021/05/16 06:40:21;;;;;;;1.17;0.77;;;;;;;;;;5025109;28;20443;-72
2021/05/16 06:42:47;;;;;;;1.80;1.00;;;;;;;;;;5037121;28;20474;-72
2021/05/16 06:45:13;;;;;;;1.52;1.02;;;;;;;;;;5023121;28;20463;-72
2021/05/16 06:47:39;;;;;;;1.30;1.00;;;;;;;;;;5032837;28;20545;-72
2021/05/16 06:50:08;;;;;;;1.10;0.70;;;;;;;;;;5029868;28;20182;-72
2021/05/16 06:52:35;;;;;;;1.10;0.70;;;;;;;;;;5033142;28;20433;-73
2021/05/16 06:55:01;;;;;;;1.40;1.00;;;;;;;;;;5032679;28;20202;-73
2021/05/16 06:57:27;;;;;;;1.10;0.83;;;;;;;;;;5028624;28;20692;-73
2021/05/16 06:59:53;;;;;;;1.10;0.75;;;;;;;;;;5032185;28;20443;-74
2021/05/16 07:02:19;;;;;;;1.30;0.80;;;;;;;;;;5026485;28;20735;-74
2021/05/16 07:04:47;;;;;;;1.60;0.87;;;;;;;;;;5025712;28;20524;-74
2021/05/16 07:07:13;;;;;;;1.85;1.30;;;;;;;;;;5024422;28;20465;-75
2021/05/16 07:09:41;;;;;;;3.17;1.45;;;;;;;;;;5033696;28;20311;-81
2021/05/16 07:12:07;;;;;;;1.10;0.90;;;;;;;;;;5036854;28;20193;-81
2021/05/16 07:14:33;;;;;;;1.45;1.13;;;;;;;;;;5039012;28;20206;-81
2021/05/16 07:16:59;;;;;;;1.30;1.13;;;;;;;;;;5038892;28;20340;-81
2021/05/16 07:19:24;;;;;;;1.20;1.03;;;;;;;;;;5033166;28;20432;-80
2021/05/16 07:21:50;;;;;;;1.10;0.90;;;;;;;;;;5033293;28;20454;-81
2021/05/16 07:24:16;;;;;;;1.20;0.80;;;;;;;;;;5026792;28;20877;-81
2021/05/16 07:26:42;;;;;;;1.10;0.80;;;;;;;;;;5036686;28;20429;-79
2021/05/16 07:29:08;;;;;;;1.10;0.80;;;;;;;;;;5020895;28;21982;-81
2021/05/16 07:31:34;;;;;;;2.73;1.37;;;;;;;;;;5037952;28;20413;-80
2021/05/16 07:34:00;;;;;;;1.10;0.80;;;;;;;;;;5020302;28;20414;-78
2021/05/16 07:36:26;;;;;;;1.20;0.80;;;;;;;;;;5032190;28;20424;-79
2021/05/16 07:38:52;;;;;;;1.50;1.40;;;;;;;;;;5038337;28;20243;-80
2021/05/16 07:41:18;;;;;;;1.10;0.70;;;;;;;;;;5038910;28;20417;-79
2021/05/16 07:43:44;;;;;;;1.38;1.00;;;;;;;;;;5036172;28;20491;-81
2021/05/16 07:46:10;;;;;;;1.10;0.80;;;;;;;;;;5034441;28;20217;-79
2021/05/16 07:48:36;;;;;;;1.63;0.80;;;;;;;;;;5034975;28;20209;-79
2021/05/16 07:51:02;;;;;;;1.10;0.70;;;;;;;;;;5030407;28;20413;-78
2021/05/16 07:53:29;;;;;;;1.20;0.70;;;;;;;;;;5030870;28;20444;-79
2021/05/16 07:55:55;;;;;;;1.20;0.85;;;;;;;;;;5035641;28;20289;-80
2021/05/16 07:58:21;;;;;;;1.10;0.68;;;;;;;;;;5034691;28;20595;-79
2021/05/16 08:00:47;;;;;;;1.30;1.02;;;;;;;;;;5036433;28;20182;-79
2021/05/16 08:03:13;;;;;;;1.10;0.70;;;;;;;;;;5040156;28;20186;-79
2021/05/16 08:05:39;;;;;;;1.10;0.70;;;;;;;;;;5037793;28;20213;-80
2021/05/16 08:08:05;;;;;;;1.10;0.70;;;;;;;;;;5030896;28;20464;-77
2021/05/16 08:10:31;;;;;;;1.10;0.70;;;;;;;;;;5038294;28;20463;-79
2021/05/16 08:12:57;;;;;;;1.10;0.70;;;;;;;;;;5035841;28;20181;-78
2021/05/16 08:15:25;;;;;;;1.10;0.70;;;;;;;;;;5049559;28;20210;-80
2021/05/16 08:17:51;;;;;;;1.10;0.70;;;;;;;;;;5037539;28;21125;-79
2021/05/16 08:20:17;;;;;;;2.65;0.80;;;;;;;;;;5035781;28;20212;-79
2021/05/16 08:22:43;;;;;;;1.15;0.80;;;;;;;;;;5039527;28;20189;-79
2021/05/16 08:25:10;;;;;;;1.10;0.70;;;;;;;;;;5023090;28;20202;-79
2021/05/16 08:27:36;;;;;;;1.20;0.98;;;;;;;;;;5034051;28;20439;-79
2021/05/16 08:30:03;;;;;;;1.10;0.70;;;;;;;;;;5028845;28;20289;-80
2021/05/16 08:32:29;;;;;;;1.42;0.80;;;;;;;;;;5040339;28;20185;-80
2021/05/16 08:34:55;;;;;;;1.10;0.70;;;;;;;;;;5033122;28;20258;-80
2021/05/16 08:37:21;;;;;;;1.20;0.80;;;;;;;;;;5034327;28;20788;-78
2021/05/16 08:39:47;;;;;;;1.10;0.70;;;;;;;;;;5036301;28;20477;-78
2021/05/16 08:42:16;;;;;;;1.10;0.80;;;;;;;;;;5049326;28;20613;-76
2021/05/16 08:44:42;;;;;;;1.10;0.77;;;;;;;;;;5037456;28;20210;-80
2021/05/16 08:47:08;;;;;;;1.10;0.70;;;;;;;;;;5032428;28;20254;-80
2021/05/16 08:49:34;;;;;;;1.10;0.68;;;;;;;;;;5027435;28;20209;-78
2021/05/16 08:52:00;;;;;;;1.10;0.70;;;;;;;;;;5034780;28;20233;-80
2021/05/16 08:54:27;;;;;;;1.20;0.80;;;;;;;;;;5026365;28;20202;-78
2021/05/16 08:56:54;;;;;;;1.10;0.80;;;;;;;;;;5035147;28;20243;-77
2021/05/16 08:59:21;;;;;;;1.10;0.90;;;;;;;;;;5040723;28;20562;-78
2021/05/16 09:01:54;;;;;;;1.77;1.05;;;;;;;;;;5033207;28;20191;-79
2021/05/16 09:04:20;;;;;;;1.20;0.70;;;;;;;;;;5037067;28;20210;-79
2021/05/16 09:06:46;;;;;;;1.20;0.90;;;;;;;;;;5030604;28;20189;-78
2021/05/16 09:09:24;;;;;;;1.30;0.80;;;;;;;;;;5026696;28;20960;-81
2021/05/16 09:11:57;;;;;;;1.10;0.70;;;;;;;;;;5035384;28;20499;-78
2021/05/16 09:14:47;;;;;;;1.23;1.08;;;;;;;;;;5025519;28;20206;-80
2021/05/16 09:17:23;;;;;;;1.10;0.70;;;;;;;;;;5022480;28;20175;-78
2021/05/16 09:19:51;;;;;;;1.10;0.70;;;;;;;;;;5037357;28;20183;-78
2021/05/16 09:22:30;;;;;;;1.20;0.80;;;;;;;;;;5035038;28;20178;-78
2021/05/16 09:25:16;;;;;;;1.10;0.70;;;;;;;;;;5032515;28;20214;-77
2021/05/16 09:27:43;;;;;;;2.85;1.13;;;;;;;;;;5034515;28;20183;-77
2021/05/16 09:30:29;;;;;;;2.45;0.88;;;;;;;;;;5034127;28;20179;-77
2021/05/16 09:33:17;;;;;;;1.20;0.70;;;;;;;;;;5026922;28;20178;-78
2021/05/16 09:35:44;;;;;;;1.10;0.70;;;;;;;;;;5033486;28;20194;-77
2021/05/16 09:38:21;;;;;;;1.10;0.60;;;;;;;;;;5045458;28;20184;-78
2021/05/16 09:40:48;;;;;;;1.20;0.70;;;;;;;;;;5017712;28;20186;-78
2021/05/16 09:43:22;;;;;;;1.10;0.70;;;;;;;;;;5039454;28;20188;-78
2021/05/16 09:45:48;;;;;;;1.10;0.70;;;;;;;;;;5042039;28;20568;-79
2021/05/16 09:48:17;;;;;;;1.67;1.07;;;;;;;;;;5037465;28;20211;-78
2021/05/16 09:50:43;;;;;;;1.23;0.65;;;;;;;;;;5035146;28;20462;-79
2021/05/16 09:53:10;;;;;;;1.10;0.70;;;;;;;;;;5036387;28;20178;-79
2021/05/16 09:55:37;;;;;;;1.20;0.80;;;;;;;;;;5034543;28;20645;-78
2021/05/16 09:58:04;;;;;;;1.00;0.70;;;;;;;;;;5034918;28;20206;-79
2021/05/16 10:00:30;;;;;;;1.10;0.70;;;;;;;;;;5033315;28;20185;-79
2021/05/16 10:02:56;;;;;;;1.00;0.60;;;;;;;;;;5034951;28;20193;-79
2021/05/16 10:05:22;;;;;;;1.00;0.70;;;;;;;;;;5035796;28;20209;-79
2021/05/16 10:07:48;;;;;;;1.30;1.03;;;;;;;;;;5034948;28;20838;-79
2021/05/16 10:10:14;;;;;;;1.10;0.70;;;;;;;;;;5035326;28;20447;-78
2021/05/16 10:12:41;;;;;;;1.00;0.67;;;;;;;;;;5032593;28;20430;-78
2021/05/16 10:15:08;;;;;;;0.90;0.60;;;;;;;;;;5028058;28;20428;-80
2021/05/16 10:17:36;;;;;;;0.90;0.60;;;;;;;;;;5038397;28;20432;-80
2021/05/16 10:20:15;;;;;;;1.70;0.77;;;;;;;;;;5036284;28;20442;-80
2021/05/16 10:22:41;;;;;;;0.80;0.60;;;;;;;;;;5038227;28;20511;-79
2021/05/16 10:25:08;;;;;;;0.80;0.60;;;;;;;;;;5024372;28;20434;-80
2021/05/16 10:27:44;;;;;;;1.17;0.90;;;;;;;;;;5029574;28;20940;-80
2021/05/16 10:30:15;;;;;;;0.80;0.60;;;;;;;;;;5036003;28;20441;-80
2021/05/16 10:32:47;;;;;;;0.70;0.60;;;;;;;;;;5036859;28;20433;-79
2021/05/16 10:35:13;;;;;;;0.90;0.70;;;;;;;;;;5040563;28;20532;-80
2021/05/16 10:37:39;;;;;;;0.80;0.57;;;;;;;;;;5031485;28;20825;-80
2021/05/16 10:40:07;;;;;;;0.70;0.57;;;;;;;;;;5035647;28;20433;-80
2021/05/16 10:42:35;;;;;;;0.87;0.60;;;;;;;;;;5040523;28;20416;-80
2021/05/16 10:45:13;;;;;;;1.20;1.10;;;;;;;;;;5036380;28;20456;-79
2021/05/16 10:47:42;;;;;;;0.90;0.63;;;;;;;;;;5038784;28;20409;-80
2021/05/16 10:50:23;;;;;;;0.70;0.70;;;;;;;;;;5043149;28;20429;-80
2021/05/16 10:52:59;;;;;;;0.60;0.50;;;;;;;;;;5042993;28;20437;-80
2021/05/16 10:55:38;;;;;;;0.60;0.60;;;;;;;;;;5044944;28;20432;-80
2021/05/16 10:58:05;;;;;;;0.60;0.50;;;;;;;;;;5044525;28;20451;-80
2021/05/16 11:00:34;;;;;;;1.63;0.70;;;;;;;;;;5043613;28;20444;-81
2021/05/16 11:03:00;;;;;;;0.60;0.50;;;;;;;;;;5045273;28;20429;-80
2021/05/16 11:05:51;;;;;;;0.60;0.60;;;;;;;;;;5043633;28;20930;-78
2021/05/16 11:08:20;;;;;;;0.60;0.50;;;;;;;;;;5052389;28;20473;-80
2021/05/16 11:10:51;;;;;;;0.60;0.60;;;;;;;;;;5045313;28;20413;-80
2021/05/16 11:13:29;;;;;;;0.60;0.50;;;;;;;;;;5044377;28;20437;-79
2021/05/16 11:15:58;;;;;;;0.60;0.60;;;;;;;;;;5044452;28;20464;-80
2021/05/16 11:18:24;;;;;;;0.60;0.50;;;;;;;;;;5046219;28;20467;-80
2021/05/16 11:20:54;;;;;;;0.70;0.70;;;;;;;;;;5034780;28;20449;-80
2021/05/16 11:23:23;;;;;;;0.60;0.50;;;;;;;;;;5034284;28;20464;-80
2021/05/16 11:26:01;;;;;;;0.60;0.60;;;;;;;;;;5042119;28;20461;-80
2021/05/16 11:28:29;;;;;;;0.60;0.50;;;;;;;;;;5043964;28;20469;-80
2021/05/16 11:30:58;;;;;;;0.60;0.57;;;;;;;;;;5044990;28;20489;-80
2021/05/16 11:33:28;;;;;;;0.60;0.53;;;;;;;;;;5044098;28;20438;-81
2021/05/16 11:35:55;;;;;;;0.60;0.50;;;;;;;;;;5033268;28;20980;-79
2021/05/16 11:38:28;;;;;;;0.60;0.60;;;;;;;;;;5037391;28;20948;-80
2021/05/16 11:40:55;;;;;;;0.70;0.63;;;;;;;;;;5045222;28;20508;-80
2021/05/16 11:43:31;;;;;;;0.70;0.60;;;;;;;;;;5045184;28;20450;-79
2021/05/16 11:46:17;;;;;;;0.60;0.50;;;;;;;;;;5046808;28;20839;-80
2021/05/16 11:49:02;;;;;;;0.77;0.77;;;;;;;;;;5036661;28;20473;-77
2021/05/16 11:51:29;;;;;;;0.60;0.50;;;;;;;;;;5032059;28;20471;-79
2021/05/16 11:54:06;;;;;;;0.70;0.60;;;;;;;;;;5037231;28;20454;-80
2021/05/16 11:56:37;;;;;;;0.70;0.50;;;;;;;;;;5045283;28;20532;-79
2021/05/16 11:59:05;;;;;;;0.60;0.50;;;;;;;;;;5035694;28;20559;-80
2021/05/16 12:01:34;;;;;;;1.47;0.60;;;;;;;;;;5025791;28;21228;-79
2021/05/16 12:04:01;;;;;;;0.60;0.50;;;;;;;;;;5046600;28;20752;-79
2021/05/16 12:06:31;;;;;;;0.60;0.40;;;;;;;;;;5044725;28;20794;-80
2021/05/16 12:09:18;;;;;;;0.67;0.67;;;;;;;;;;5040086;28;20490;-79
2021/05/16 12:11:48;;;;;;;1.20;0.80;;;;;;;;;;5043678;28;20448;-80
2021/05/16 12:14:18;;;;;;;0.60;0.50;;;;;;;;;;5047749;28;20514;-79
2021/05/16 12:16:55;;;;;;;0.80;0.70;;;;;;;;;;5051882;28;20427;-80
2021/05/16 12:19:25;;;;;;;0.60;0.50;;;;;;;;;;5045975;28;20803;-80
2021/05/16 12:22:01;;;;;;;0.60;0.50;;;;;;;;;;5045758;28;20487;-78
2021/05/16 12:24:31;;;;;;;0.60;0.40;;;;;;;;;;5052190;28;20460;-79
2021/05/16 12:27:07;;;;;;;0.60;0.50;;;;;;;;;;5043373;28;20425;-79
2021/05/16 12:29:34;;;;;;;0.60;0.50;;;;;;;;;;5035093;28;21054;-80
2021/05/16 12:32:00;;;;;;;0.60;0.50;;;;;;;;;;5043645;28;20424;-79
2021/05/16 12:34:27;;;;;;;0.60;0.40;;;;;;;;;;5041961;28;20457;-78
2021/05/16 12:36:54;;;;;;;0.60;0.50;;;;;;;;;;5044330;28;20424;-80
2021/05/16 12:39:39;;;;;;;0.60;0.50;;;;;;;;;;5044866;28;20433;-80
2021/05/16 12:42:24;;;;;;;0.60;0.50;;;;;;;;;;5043325;28;20463;-79
2021/05/16 12:44:50;;;;;;;0.60;0.40;;;;;;;;;;5044320;28;21053;-80
2021/05/16 12:47:23;;;;;;;0.60;0.50;;;;;;;;;;5043917;28;20440;-79
2021/05/16 12:49:49;;;;;;;0.60;0.50;;;;;;;;;;5044253;28;21044;-80
2021/05/16 12:52:26;;;;;;;0.60;0.50;;;;;;;;;;5043044;28;20655;-80
2021/05/16 12:54:52;;;;;;;0.60;0.50;;;;;;;;;;5039782;28;20460;-78
2021/05/16 12:57:26;;;;;;;0.97;0.70;;;;;;;;;;5044248;28;20415;-80
2021/05/16 12:59:52;;;;;;;0.80;0.60;;;;;;;;;;5043560;28;20464;-80
2021/05/16 13:02:18;;;;;;;0.60;0.60;;;;;;;;;;5043201;28;20419;-79
2021/05/16 13:04:54;;;;;;;0.60;0.50;;;;;;;;;;5038920;28;20462;-79
2021/05/16 13:07:34;;;;;;;0.70;0.70;;;;;;;;;;5041770;28;20436;-78
2021/05/16 13:10:00;;;;;;;0.70;0.70;;;;;;;;;;5037174;28;21014;-78
2021/05/16 13:12:27;;;;;;;0.60;0.60;;;;;;;;;;5043773;28;20425;-79
2021/05/16 13:14:56;;;;;;;0.70;0.60;;;;;;;;;;5035213;28;20428;-80
2021/05/16 13:17:29;;;;;;;0.60;0.50;;;;;;;;;;5035301;28;20404;-76
2021/05/16 13:19:55;;;;;;;3.73;0.70;;;;;;;;;;5029217;28;20902;-76
2021/05/16 13:22:37;;;;;;;0.60;0.60;;;;;;;;;;5036386;28;20398;-77
2021/05/16 13:25:08;;;;;;;0.80;0.80;;;;;;;;;;5035925;28;20411;-77
2021/05/16 13:27:34;;;;;;;0.80;0.80;;;;;;;;;;5035905;28;20498;-77
2021/05/16 13:30:01;;;;;;;0.70;0.60;;;;;;;;;;5033603;28;21012;-77
2021/05/16 13:32:27;;;;;;;0.70;0.60;;;;;;;;;;5033955;28;20489;-78
2021/05/16 13:34:53;;;;;;;0.70;0.60;;;;;;;;;;5033477;28;20972;-77
2021/05/16 13:37:19;;;;;;;0.70;0.60;;;;;;;;;;5034543;28;20403;-77
2021/05/16 13:39:45;;;;;;;0.70;0.60;;;;;;;;;;5033728;28;20405;-77
2021/05/16 13:42:11;;;;;;;0.70;0.60;;;;;;;;;;5034383;28;20479;-77
2021/05/16 13:44:37;;;;;;;0.70;0.60;;;;;;;;;;5033572;28;20432;-77
2021/05/16 13:47:04;;;;;;;0.60;0.50;;;;;;;;;;5031644;28;21003;-77
2021/05/16 13:49:31;;;;;;;0.60;0.50;;;;;;;;;;5034517;28;20522;-78
2021/05/16 13:51:57;;;;;;;0.60;0.50;;;;;;;;;;5036951;28;20432;-78
2021/05/16 13:54:25;;;;;;;0.60;0.50;;;;;;;;;;5041001;28;20799;-78
2021/05/16 13:56:52;;;;;;;0.60;0.47;;;;;;;;;;5044091;28;20424;-75
2021/05/16 13:59:18;;;;;;;0.60;0.50;;;;;;;;;;5041926;28;20512;-76
2021/05/16 14:01:44;;;;;;;0.60;0.40;;;;;;;;;;5041513;28;20429;-78
2021/05/16 14:04:11;;;;;;;1.63;0.50;;;;;;;;;;5042880;28;20408;-77
2021/05/16 14:06:38;;;;;;;0.60;0.50;;;;;;;;;;5043587;28;20419;-77
2021/05/16 14:09:05;;;;;;;0.60;0.40;;;;;;;;;;5043920;28;20495;-78
2021/05/16 14:11:31;;;;;;;0.60;0.50;;;;;;;;;;5046042;28;20485;-78
2021/05/16 14:13:59;;;;;;;0.60;0.50;;;;;;;;;;5040763;28;20917;-78
2021/05/16 14:16:25;;;;;;;0.60;0.50;;;;;;;;;;5045877;28;20401;-78
2021/05/16 14:18:51;;;;;;;0.60;0.50;;;;;;;;;;5045197;28;20435;-78
2021/05/16 14:21:19;;;;;;;0.60;0.50;;;;;;;;;;5044511;28;20435;-78
2021/05/16 14:23:45;;;;;;;0.60;0.50;;;;;;;;;;5045262;28;20568;-78
2021/05/16 14:26:11;;;;;;;0.67;0.57;;;;;;;;;;5044607;28;20831;-78
2021/05/16 14:28:37;;;;;;;0.60;0.50;;;;;;;;;;5045251;28;20482;-78
2021/05/16 14:31:03;;;;;;;0.60;0.50;;;;;;;;;;5043396;28;20450;-78
2021/05/16 14:33:29;;;;;;;1.03;0.77;;;;;;;;;;5045933;28;20897;-78
2021/05/16 14:35:55;;;;;;;0.60;0.50;;;;;;;;;;5044515;28;20497;-78
2021/05/16 14:38:21;;;;;;;0.60;0.60;;;;;;;;;;5045411;28;20429;-78
2021/05/16 14:40:47;;;;;;;0.60;0.50;;;;;;;;;;5046190;28;20417;-78
2021/05/16 14:43:16;;;;;;;0.60;0.50;;;;;;;;;;5045050;28;20445;-78
2021/05/16 14:45:42;;;;;;;0.60;0.50;;;;;;;;;;5042304;28;20465;-78